Time;durP1;ratioP1;P1;durP2;ratioP2;P2;SDS_P1;SDS_P2;PMS_P1;PMS_P2;Temp;Humidity;BMP_temperature;BMP_pressure;BME280_temperature;BME280_humidity;BME280_pressure;Samples;Min_cycle;Max_cycle;Signal;HPM_P1;HPM_P2
2023/07/17 00:01:13;;;;;;;2.60;2.20;;;;;;;23.09;68.88;99166.33;108068;1306;22359;-51
2023/07/17 00:03:38;;;;;;;5.30;2.70;;;;;;;23.07;68.97;99165.66;108030;1306;22434;-45
2023/07/17 00:06:03;;;;;;;4.30;2.30;;;;;;;23.05;68.96;99168.23;108041;1306;22240;-50
2023/07/17 00:08:28;;;;;;;5.60;2.70;;;;;;;23.02;69.40;99169.19;108039;1306;23087;-52
2023/07/17 00:10:57;;;;;;;2.90;2.60;;;;;;;23.01;69.06;99169.67;108055;1306;22412;-52
2023/07/17 00:13:22;;;;;;;6.10;2.50;;;;;;;22.99;69.18;99170.19;108039;1306;22223;-48
2023/07/17 00:15:47;;;;;;;2.70;2.50;;;;;;;22.99;68.53;99166.83;108012;1306;22645;-47
2023/07/17 00:18:13;;;;;;;2.70;2.30;;;;;;;22.98;69.28;99166.60;108044;1306;23572;-47
2023/07/17 00:20:38;;;;;;;2.80;2.30;;;;;;;22.96;69.45;99162.69;108018;1306;22214;-52
2023/07/17 00:23:03;;;;;;;4.20;2.70;;;;;;;22.92;70.23;99164.17;108046;1306;22295;-49
2023/07/17 00:25:28;;;;;;;4.00;2.60;;;;;;;22.88;70.49;99160.14;108032;1306;23268;-53
2023/07/17 00:27:54;;;;;;;3.10;2.60;;;;;;;22.83;71.07;99159.60;108034;1306;22409;-50
2023/07/17 00:30:19;;;;;;;2.60;2.40;;;;;;;22.79;70.96;99161.51;108052;1306;22282;-50
2023/07/17 00:32:44;;;;;;;3.20;2.90;;;;;;;22.74;71.19;99163.58;108012;1306;22442;-54
2023/07/17 00:35:09;;;;;;;6.60;3.10;;;;;;;22.75;70.87;99161.43;108043;1306;22447;-50
2023/07/17 00:37:35;;;;;;;3.70;2.60;;;;;;;22.73;71.26;99164.64;108020;1307;22444;-48
2023/07/17 00:40:00;;;;;;;2.70;2.50;;;;;;;22.69;71.69;99167.06;108033;1306;22250;-54
2023/07/17 00:42:26;;;;;;;2.20;2.10;;;;;;;22.64;71.56;99170.59;108026;1306;22249;-50
2023/07/17 00:44:51;;;;;;;4.50;2.50;;;;;;;22.59;72.01;99173.77;108021;1306;22212;-47
2023/07/17 00:47:20;;;;;;;4.00;2.40;;;;;;;22.55;71.93;99171.36;108059;1307;22258;-51
2023/07/17 00:49:47;;;;;;;4.10;2.60;;;;;;;22.54;71.84;99169.35;108039;1306;22952;-51
2023/07/17 00:52:13;;;;;;;4.10;2.80;;;;;;;22.53;72.34;99164.85;108025;1306;22992;-48
2023/07/17 00:54:41;;;;;;;3.20;2.80;;;;;;;22.50;72.75;99161.60;108036;1306;22211;-50
2023/07/17 00:57:08;;;;;;;2.50;2.30;;;;;;;22.46;72.96;99153.19;108047;1285;22466;-56
2023/07/17 00:59:33;;;;;;;3.60;2.70;;;;;;;22.42;73.32;99145.95;108051;1307;22231;-48
2023/07/17 01:01:59;;;;;;;5.90;2.80;;;;;;;22.40;73.18;99146.05;108033;1307;22292;-55
2023/07/17 01:04:24;;;;;;;2.70;2.40;;;;;;;22.37;73.82;99152.96;108024;1307;22230;-52
2023/07/17 01:06:49;;;;;;;9.00;3.00;;;;;;;22.34;73.44;99150.54;108001;1307;23096;-53
2023/07/17 01:09:16;;;;;;;2.60;2.40;;;;;;;22.33;73.53;99147.66;108025;1307;22238;-52
2023/07/17 01:11:41;;;;;;;3.10;2.90;;;;;;;22.31;73.37;99142.16;108053;1306;22281;-55
2023/07/17 01:14:14;;;;;;;3.00;2.70;;;;;;;22.28;74.00;99143.90;108036;1288;22292;-47
2023/07/17 01:16:40;;;;;;;5.50;2.70;;;;;;;22.24;74.17;99141.39;108045;1307;22889;-51
2023/07/17 01:19:05;;;;;;;3.00;2.80;;;;;;;22.24;73.70;99139.34;108035;1307;22196;-52
2023/07/17 01:21:35;;;;;;;7.00;2.70;;;;;;;22.21;74.36;99137.77;108040;1307;22258;-50
2023/07/17 01:24:00;;;;;;;3.50;2.80;;;;;;;22.19;74.51;99144.05;108036;1307;22195;-53
2023/07/17 01:26:25;;;;;;;3.90;3.50;;;;;;;22.18;74.35;99149.34;108027;1307;22235;-51
2023/07/17 01:28:51;;;;;;;3.50;2.80;;;;;;;22.16;74.49;99142.80;108043;1307;23033;-44
2023/07/17 01:31:16;;;;;;;3.20;2.80;;;;;;;22.14;74.39;99145.74;108059;1307;22233;-49
2023/07/17 01:33:43;;;;;;;4.10;2.80;;;;;;;22.11;75.00;99152.80;107843;1307;22227;-51
2023/07/17 01:36:08;;;;;;;3.30;3.00;;;;;;;22.08;75.15;99159.72;107584;1307;22285;-55
2023/07/17 01:38:34;;;;;;;9.00;2.90;;;;;;;22.06;75.12;99163.71;108033;1307;22468;-50
2023/07/17 01:40:59;;;;;;;3.40;2.90;;;;;;;22.05;74.93;99163.65;108041;1307;22402;-51
2023/07/17 01:43:25;;;;;;;3.10;2.70;;;;;;;22.02;75.96;99168.90;108041;1306;22470;-52
2023/07/17 01:45:51;;;;;;;3.40;2.80;;;;;;;22.00;76.03;99166.79;108035;1307;22230;-51
2023/07/17 01:48:17;;;;;;;4.30;3.00;;;;;;;21.99;75.75;99162.43;108052;1306;22222;-49
2023/07/17 01:50:44;;;;;;;3.50;3.20;;;;;;;21.98;76.25;99157.73;108052;1307;23013;-51
2023/07/17 01:53:09;;;;;;;4.30;3.00;;;;;;;21.96;76.46;99159.23;107624;1307;22276;-54
2023/07/17 01:55:36;;;;;;;3.30;3.00;;;;;;;21.95;76.00;99168.56;108048;1307;22260;-53
2023/07/17 01:58:01;;;;;;;4.50;2.60;;;;;;;21.94;76.32;99177.08;108042;1306;22561;-50
2023/07/17 02:00:27;;;;;;;6.90;2.90;;;;;;;21.94;76.46;99185.52;108015;1307;22967;-52
2023/07/17 02:02:52;;;;;;;3.60;3.10;;;;;;;21.93;76.44;99187.53;108054;1307;22235;-48
2023/07/17 02:05:17;;;;;;;3.40;2.90;;;;;;;21.93;76.08;99184.19;108044;1307;22246;-50
2023/07/17 02:07:43;;;;;;;5.80;2.80;;;;;;;21.93;76.19;99184.76;108032;1307;22394;-53
2023/07/17 02:10:08;;;;;;;3.40;3.10;;;;;;;21.92;76.61;99181.20;108053;1307;22392;-51
2023/07/17 02:12:34;;;;;;;4.80;2.90;;;;;;;21.94;76.62;99172.98;108039;1307;22322;-55
2023/07/17 02:14:59;;;;;;;4.50;3.10;;;;;;;21.96;76.44;99176.91;108038;1307;22206;-49
2023/07/17 02:17:25;;;;;;;3.70;2.70;;;;;;;21.99;76.43;99187.85;108022;1307;22307;-52
2023/07/17 02:19:50;;;;;;;3.30;3.10;;;;;;;22.01;76.23;99199.01;108031;1307;22380;-46
2023/07/17 02:22:15;;;;;;;3.20;2.90;;;;;;;22.04;76.28;99197.26;108018;1307;23042;-54
2023/07/17 02:24:41;;;;;;;3.40;3.10;;;;;;;22.05;76.27;99188.79;108038;1307;22215;-51
2023/07/17 02:27:06;;;;;;;5.80;3.20;;;;;;;22.07;76.35;99189.70;108042;1307;22347;-48
2023/07/17 02:29:31;;;;;;;5.80;3.00;;;;;;;22.09;75.94;99192.45;108033;1289;22302;-51
2023/07/17 02:31:56;;;;;;;3.90;3.00;;;;;;;22.12;75.86;99193.47;108038;1306;22238;-56
2023/07/17 02:34:22;;;;;;;6.40;3.00;;;;;;;22.12;76.08;99193.73;108060;1307;24257;-53
2023/07/17 02:36:48;;;;;;;4.20;3.20;;;;;;;22.14;76.08;99191.64;108035;1306;22466;-52
2023/07/17 02:39:13;;;;;;;3.80;2.90;;;;;;;22.15;76.05;99188.13;108037;1307;23077;-52
2023/07/17 02:43:40;;;;;;;5.90;2.90;;;;;;;22.16;76.16;99194.71;106946;1303;545400;-51
2023/07/17 02:46:05;;;;;;;4.10;2.90;;;;;;;22.13;76.23;99195.24;107357;1313;22475;-49
2023/07/17 02:48:31;;;;;;;3.30;2.90;;;;;;;22.11;76.37;99199.63;107358;1313;22201;-47
2023/07/17 02:50:56;;;;;;;3.60;3.10;;;;;;;22.07;76.78;99201.41;107382;1313;22393;-55
2023/07/17 02:53:21;;;;;;;3.50;2.90;;;;;;;22.05;77.02;99211.65;107363;1313;22305;-50
2023/07/17 02:55:46;;;;;;;5.40;3.10;;;;;;;22.03;76.51;99210.77;107368;1313;23088;-52
2023/07/17 02:58:16;;;;;;;4.10;3.10;;;;;;;22.00;76.85;99210.89;107390;1311;154559;-52
2023/07/17 03:00:42;;;;;;;5.00;3.10;;;;;;;21.96;77.42;99207.36;107549;1311;22245;-53
2023/07/17 03:03:07;;;;;;;4.60;3.70;;;;;;;21.94;77.23;99206.17;107521;1311;22232;-53
2023/07/17 03:05:37;;;;;;;3.60;3.30;;;;;;;21.94;77.29;99199.65;107534;1311;22243;-45
2023/07/17 03:08:03;;;;;;;4.50;2.80;;;;;;;21.93;77.74;99197.07;107573;1311;23058;-45
2023/07/17 03:10:29;;;;;;;5.60;3.40;;;;;;;21.93;77.43;99194.86;107583;1311;22223;-46
2023/07/17 03:12:55;;;;;;;5.40;3.50;;;;;;;21.94;77.60;99198.21;107567;1311;22247;-50
2023/07/17 03:15:20;;;;;;;4.80;3.40;;;;;;;21.94;77.25;99204.56;107576;1311;22286;-52
2023/07/17 03:17:46;;;;;;;6.70;3.60;;;;;;;21.93;77.55;99210.80;107559;1311;22612;-54
2023/07/17 03:20:13;;;;;;;4.00;3.50;;;;;;;21.91;77.79;99219.52;107578;1311;22222;-51
2023/07/17 03:22:38;;;;;;;4.10;3.70;;;;;;;21.90;78.03;99222.08;107558;1311;22351;-49
2023/07/17 03:25:08;;;;;;;5.50;3.80;;;;;;;21.90;77.91;99227.80;107558;1310;22411;-47
2023/07/17 03:27:33;;;;;;;4.30;3.60;;;;;;;21.90;78.05;99225.06;107701;1310;22258;-50
2023/07/17 03:29:59;;;;;;;5.30;3.70;;;;;;;21.88;78.40;99223.65;107699;1310;22304;-49
2023/07/17 03:32:24;;;;;;;6.70;3.60;;;;;;;21.89;78.05;99228.71;107672;1310;22457;-50
2023/07/17 03:34:49;;;;;;;3.80;3.40;;;;;;;21.91;77.68;99233.29;107699;1310;22326;-51
2023/07/17 03:37:14;;;;;;;4.90;3.90;;;;;;;21.93;77.83;99231.64;107704;1309;22211;-48
2023/07/17 03:39:40;;;;;;;6.10;3.20;;;;;;;21.94;77.81;99235.63;107687;1310;22220;-54
2023/07/17 03:42:10;;;;;;;3.70;3.30;;;;;;;21.98;77.81;99241.48;107705;1309;22212;-52
2023/07/17 03:44:36;;;;;;;4.00;3.60;;;;;;;22.02;77.66;99246.39;107747;1310;22220;-48
2023/07/17 03:47:02;;;;;;;4.00;3.40;;;;;;;22.07;77.24;99256.64;107739;1309;22236;-46
2023/07/17 03:49:27;;;;;;;5.70;4.10;;;;;;;22.10;77.10;99264.73;107690;1310;22327;-50
2023/07/17 03:51:52;;;;;;;4.00;3.40;;;;;;;22.11;77.32;99272.98;107671;1310;22302;-51
2023/07/17 03:54:18;;;;;;;3.70;3.30;;;;;;;22.10;77.24;99273.30;107658;1310;22213;-51
2023/07/17 03:56:43;;;;;;;7.60;3.90;;;;;;;22.09;77.55;99262.85;107641;1310;23312;-46
2023/07/17 03:59:08;;;;;;;3.90;3.40;;;;;;;22.14;76.91;99258.35;107635;1310;22207;-53
2023/07/17 04:01:33;;;;;;;3.70;3.10;;;;;;;22.13;77.61;99257.94;107636;1310;22394;-54
2023/07/17 04:03:59;;;;;;;7.80;4.00;;;;;;;22.16;77.58;99255.81;107666;1310;22996;-51
2023/07/17 04:06:24;;;;;;;6.10;3.70;;;;;;;22.16;77.48;99253.14;107696;1310;22315;-51
2023/07/17 04:08:49;;;;;;;7.10;3.60;;;;;;;22.16;77.54;99258.70;107703;1310;22210;-46
2023/07/17 04:11:15;;;;;;;6.00;4.20;;;;;;;22.18;77.46;99265.40;107662;1310;22233;-52
2023/07/17 04:13:41;;;;;;;5.10;3.50;;;;;;;22.19;77.64;99265.15;107657;1310;22842;-54
2023/07/17 04:16:07;;;;;;;10.80;3.60;;;;;;;22.20;77.89;99274.35;107665;1310;22437;-54
2023/07/17 04:18:33;;;;;;;4.50;3.60;;;;;;;22.18;77.93;99277.23;107689;1310;22951;-47
2023/07/17 04:20:58;;;;;;;10.50;4.30;;;;;;;22.17;77.47;99270.70;107676;1310;22228;-52
2023/07/17 04:23:23;;;;;;;7.80;3.60;;;;;;;22.19;77.55;99278.50;107692;1310;22097;-48
2023/07/17 04:25:50;;;;;;;4.70;3.90;;;;;;;22.22;77.63;99291.58;107722;1309;22425;-48
2023/07/17 04:28:15;;;;;;;7.20;4.00;;;;;;;22.23;78.02;99288.70;107715;1309;22217;-46
2023/07/17 04:30:41;;;;;;;6.40;4.30;;;;;;;22.27;77.79;99287.11;107715;1309;22263;-48
2023/07/17 04:33:06;;;;;;;6.00;3.70;;;;;;;22.32;77.74;99286.92;107715;1310;22921;-51
2023/07/17 04:35:38;;;;;;;6.50;4.00;;;;;;;22.37;77.70;99287.08;107702;1310;22266;-50
2023/07/17 04:38:04;;;;;;;8.20;3.90;;;;;;;22.41;77.78;99280.08;107726;1309;22233;-54
2023/07/17 04:40:30;;;;;;;5.60;3.90;;;;;;;22.48;77.29;99281.45;107740;1310;22231;-54
2023/07/17 04:42:55;;;;;;;13.40;4.00;;;;;;;22.53;77.19;99280.88;107713;1309;22939;-52
2023/07/17 04:45:20;;;;;;;6.10;3.80;;;;;;;22.55;77.27;99275.46;107692;1309;22338;-56
2023/07/17 04:47:46;;;;;;;8.70;4.60;;;;;;;22.55;76.96;99267.99;107813;1292;22392;-49
2023/07/17 04:50:11;;;;;;;5.50;3.60;;;;;;;22.59;77.01;99267.05;107818;1308;22267;-47
2023/07/17 04:52:36;;;;;;;6.90;3.40;;;;;;;22.64;76.45;99259.77;107829;1308;22849;-46
2023/07/17 04:55:02;;;;;;;6.00;3.50;;;;;;;22.66;76.26;99268.19;107832;1308;22224;-48
2023/07/17 04:57:27;;;;;;;6.70;3.60;;;;;;;22.65;76.65;99275.39;107808;1308;22240;-51
2023/07/17 04:59:53;;;;;;;6.30;3.80;;;;;;;22.64;76.51;99284.84;107821;1308;22250;-53
2023/07/17 05:02:18;;;;;;;4.70;3.90;;;;;;;22.59;77.10;99281.31;107802;1308;22244;-51
2023/07/17 05:04:43;;;;;;;5.60;3.90;;;;;;;22.61;76.63;99273.47;107812;1308;22929;-55
2023/07/17 05:07:09;;;;;;;5.40;4.30;;;;;;;22.59;76.84;99264.56;107791;1308;22302;-52
2023/07/17 05:09:34;;;;;;;8.30;4.20;;;;;;;22.59;76.92;99262.08;107807;1308;22218;-49
2023/07/17 05:11:59;;;;;;;4.30;3.80;;;;;;;22.61;77.15;99268.65;107835;1308;22243;-49
2023/07/17 05:14:25;;;;;;;6.30;3.90;;;;;;;22.66;76.82;99272.59;107821;1289;22421;-48
2023/07/17 05:16:50;;;;;;;7.10;4.20;;;;;;;22.65;77.02;99282.34;107809;1308;23358;-52
2023/07/17 05:19:15;;;;;;;7.00;4.00;;;;;;;22.66;76.98;99280.86;107831;1308;22321;-54
2023/07/17 05:21:40;;;;;;;4.70;3.40;;;;;;;22.64;77.22;99268.49;107820;1308;22981;-51
2023/07/17 05:24:06;;;;;;;7.70;3.80;;;;;;;22.63;77.64;99266.88;107804;1308;24977;-52
2023/07/17 05:26:31;;;;;;;4.30;3.80;;;;;;;22.62;77.36;99265.88;107843;1308;22433;-46
2023/07/17 05:28:56;;;;;;;5.80;3.60;;;;;;;22.67;77.10;99261.73;107825;1308;23113;-51
2023/07/17 05:31:22;;;;;;;8.00;3.90;;;;;;;22.77;77.07;99258.08;107817;1308;22743;-45
2023/07/17 05:33:47;;;;;;;6.20;3.50;;;;;;;22.85;76.77;99258.39;107829;1308;22203;-50
2023/07/17 05:36:12;;;;;;;8.70;3.60;;;;;;;22.93;76.11;99256.86;107816;1308;22229;-50
2023/07/17 05:38:37;;;;;;;13.60;4.10;;;;;;;22.97;76.08;99254.59;107817;1308;22236;-49
2023/07/17 05:41:03;;;;;;;6.30;4.00;;;;;;;23.00;75.97;99261.80;107837;1308;22267;-48
2023/07/17 05:43:31;;;;;;;7.20;3.40;;;;;;;23.07;75.69;99257.69;107797;1308;22379;-46
2023/07/17 05:45:57;;;;;;;5.60;4.00;;;;;;;23.13;75.67;99264.80;107813;1308;22250;-53
2023/07/17 05:48:23;;;;;;;4.10;3.40;;;;;;;23.18;75.41;99267.88;107812;1308;22238;-51
2023/07/17 05:50:48;;;;;;;5.60;4.10;;;;;;;23.23;75.20;99270.16;107812;1308;22235;-51
2023/07/17 05:53:13;;;;;;;5.20;3.60;;;;;;;23.25;75.00;99263.27;107797;1308;22091;-55
2023/07/17 05:55:38;;;;;;;5.10;3.70;;;;;;;23.25;74.80;99264.02;107808;1308;22378;-49
2023/07/17 05:58:04;;;;;;;5.20;3.70;;;;;;;23.26;74.78;99265.11;107791;1308;22397;-49
2023/07/17 06:00:29;;;;;;;10.40;4.20;;;;;;;23.28;74.76;99266.66;107804;1308;23131;-53
2023/07/17 06:02:54;;;;;;;8.90;4.10;;;;;;;23.30;74.63;99273.03;107795;1308;22194;-50
2023/07/17 06:05:20;;;;;;;7.30;3.90;;;;;;;23.27;74.81;99276.44;107810;1308;22210;-55
2023/07/17 06:07:45;;;;;;;5.80;3.40;;;;;;;23.28;74.83;99273.10;107790;1308;22256;-50
2023/07/17 06:10:12;;;;;;;4.00;3.50;;;;;;;23.29;74.47;99273.00;107811;1308;22974;-49
2023/07/17 06:12:37;;;;;;;;;;;;;;;23.32;74.27;99266.29;107803;1308;22426;-52
2023/07/17 06:15:03;;;;;;;11.30;3.30;;;;;;;23.30;74.18;99267.19;107828;1308;22406;-54
2023/07/17 06:17:29;;;;;;;6.70;3.40;;;;;;;23.26;73.97;99261.18;107819;1308;22204;-50
2023/07/17 06:19:54;;;;;;;3.90;3.20;;;;;;;23.25;73.83;99261.45;107829;1308;22848;-47
2023/07/17 06:22:19;;;;;;;3.40;3.10;;;;;;;23.30;73.61;99261.84;107801;1308;22300;-54
2023/07/17 06:24:45;;;;;;;4.20;3.50;;;;;;;23.31;73.33;99257.64;107814;1308;22236;-53
2023/07/17 06:27:10;;;;;;;5.30;3.10;;;;;;;23.30;73.14;99256.26;107795;1308;22449;-49
2023/07/17 06:29:35;;;;;;;4.40;3.30;;;;;;;23.33;72.99;99255.98;107841;1308;22260;-47
2023/07/17 06:32:01;;;;;;;4.40;2.90;;;;;;;23.30;73.16;99253.60;107843;1308;22192;-48
2023/07/17 06:34:26;;;;;;;6.30;3.60;;;;;;;23.31;73.11;99253.44;107807;1308;22351;-48
2023/07/17 06:36:51;;;;;;;9.90;3.90;;;;;;;23.31;73.11;99251.48;107800;1308;22930;-54
2023/07/17 06:39:17;;;;;;;4.50;3.30;;;;;;;23.34;72.86;99252.94;107827;1290;22572;-52
2023/07/17 06:41:42;;;;;;;7.30;3.20;;;;;;;23.40;72.98;99255.21;107783;1308;22278;-55
2023/07/17 06:44:08;;;;;;;7.70;3.20;;;;;;;23.45;72.93;99248.42;107798;1308;22450;-48
2023/07/17 06:46:33;;;;;;;10.30;3.80;;;;;;;23.51;72.70;99249.47;107791;1308;23244;-50
2023/07/17 06:48:58;;;;;;;7.20;3.50;;;;;;;23.58;72.36;99260.39;107839;1298;22309;-50
2023/07/17 06:51:24;;;;;;;6.30;3.70;;;;;;;23.66;72.64;99257.64;107811;1308;22409;-53
2023/07/17 06:53:49;;;;;;;4.70;3.10;;;;;;;23.79;72.58;99258.55;107769;1308;22205;-51
2023/07/17 06:56:15;;;;;;;6.30;3.40;;;;;;;23.91;71.97;99263.95;107794;1308;22400;-52
2023/07/17 06:58:40;;;;;;;8.70;3.30;;;;;;;23.97;71.67;99268.74;107806;1308;22265;-52
2023/07/17 07:01:05;;;;;;;5.90;3.30;;;;;;;24.01;71.53;99266.42;107834;1308;22869;-50
2023/07/17 07:03:31;;;;;;;7.70;3.80;;;;;;;23.95;71.77;99268.61;107854;1308;22213;-47
2023/07/17 07:05:59;;;;;;;4.60;3.00;;;;;;;23.95;71.67;99268.98;107858;1308;22253;-46
2023/07/17 07:08:26;;;;;;;5.60;3.40;;;;;;;23.85;70.81;99270.65;107872;1308;22218;-51
2023/07/17 07:10:52;;;;;;;;;;;;;;;23.78;70.96;99270.05;107881;1308;22485;-44
2023/07/17 07:13:19;;;;;;;9.90;3.50;;;;;;;23.73;71.22;99266.39;107864;1308;23067;-49
2023/07/17 07:15:44;;;;;;;9.10;3.20;;;;;;;23.72;71.15;99261.18;107858;1308;22402;-51
2023/07/17 07:18:09;;;;;;;4.20;3.20;;;;;;;23.77;70.93;99262.52;107839;1308;22238;-49
2023/07/17 07:20:34;;;;;;;6.60;3.20;;;;;;;23.84;70.46;99263.82;107863;1308;22247;-50
2023/07/17 07:23:00;;;;;;;7.10;3.20;;;;;;;23.87;70.28;99256.15;107861;1308;22215;-52
2023/07/17 07:25:25;;;;;;;7.40;2.70;;;;;;;23.92;69.87;99261.48;107862;1308;22207;-52
2023/07/17 07:27:50;;;;;;;5.90;2.80;;;;;;;23.94;69.07;99261.20;107870;1308;22276;-54
2023/07/17 07:30:16;;;;;;;7.00;3.60;;;;;;;23.99;68.89;99257.63;107855;1308;23182;-53
2023/07/17 07:32:41;;;;;;;5.10;2.70;;;;;;;24.05;68.43;99258.89;107859;1308;22382;-47
2023/07/17 07:37:09;;;;;;;2.60;2.40;;;;;;;24.16;67.64;99245.86;107253;1305;557039;-56
2023/07/17 07:39:35;;;;;;;4.40;2.50;;;;;;;24.24;66.98;99234.16;107041;1293;22563;-44
2023/07/17 07:42:00;;;;;;;4.80;2.70;;;;;;;24.37;66.94;99228.14;107369;1306;22590;-41
2023/07/17 07:44:25;;;;;;;6.20;2.80;;;;;;;24.46;66.23;99227.95;107989;1307;22380;-45
2023/07/17 07:46:50;;;;;;;2.20;2.10;;;;;;;24.51;65.92;99229.19;108028;1306;23319;-47
2023/07/17 07:49:16;;;;;;;3.10;2.30;;;;;;;24.58;65.17;99237.73;107875;1305;171094;-44
2023/07/17 07:51:41;;;;;;;6.00;3.20;;;;;;;24.68;64.57;99241.81;108350;1303;22180;-51
2023/07/17 07:54:06;;;;;;;3.10;2.70;;;;;;;24.76;64.97;99239.83;108330;1303;22477;-48
2023/07/17 07:56:31;;;;;;;4.80;2.70;;;;;;;24.80;63.37;99232.15;108308;1298;22494;-53
2023/07/17 07:58:57;;;;;;;7.20;3.00;;;;;;;24.87;63.57;99229.42;108331;1303;22544;-44
2023/07/17 08:01:22;;;;;;;3.00;2.60;;;;;;;24.97;63.49;99238.71;108327;1303;22303;-44
2023/07/17 08:03:47;;;;;;;5.20;3.10;;;;;;;25.06;63.47;99243.27;108333;1303;22464;-51
2023/07/17 08:06:13;;;;;;;3.60;2.40;;;;;;;25.16;63.23;99246.27;108356;1303;22763;-53
2023/07/17 08:08:38;;;;;;;6.90;2.80;;;;;;;25.25;62.45;99251.13;108346;1303;23654;-50
2023/07/17 08:11:03;;;;;;;8.80;3.20;;;;;;;25.29;61.36;99249.09;108333;1303;22240;-51
2023/07/17 08:13:29;;;;;;;2.90;2.60;;;;;;;25.37;61.55;99248.84;108343;1303;22476;-46
2023/07/17 08:15:54;;;;;;;4.90;2.70;;;;;;;25.48;61.21;99247.08;108267;1292;22322;-45
2023/07/17 08:18:19;;;;;;;4.40;2.70;;;;;;;25.49;60.41;99252.81;108302;1303;22236;-50
2023/07/17 08:20:44;;;;;;;5.30;2.80;;;;;;;25.57;60.77;99251.83;108341;1300;22617;-53
2023/07/17 08:23:10;;;;;;;3.00;2.40;;;;;;;25.66;60.52;99249.52;108279;1303;22903;-46
2023/07/17 08:25:35;;;;;;;3.10;2.40;;;;;;;25.85;60.66;99246.77;108334;1303;22459;-48
2023/07/17 08:28:00;;;;;;;5.10;2.90;;;;;;;25.95;59.01;99245.29;108320;1303;22346;-45
2023/07/17 08:30:26;;;;;;;4.30;2.70;;;;;;;26.00;58.70;99240.35;108350;1299;22286;-44
2023/07/17 08:32:51;;;;;;;4.10;2.80;;;;;;;26.09;58.53;99230.42;108303;1303;23044;-46
2023/07/17 08:35:16;;;;;;;9.10;2.90;;;;;;;26.26;58.92;99227.77;108229;1301;22987;-47
2023/07/17 08:37:42;;;;;;;2.80;2.50;;;;;;;26.44;58.15;99230.64;108187;1304;22331;-55
2023/07/17 08:40:10;;;;;;;2.70;2.40;;;;;;;26.56;57.79;99229.73;108043;1303;22568;-45
2023/07/17 08:42:37;;;;;;;5.30;3.20;;;;;;;26.76;57.29;99228.66;107963;1304;22580;-46
2023/07/17 08:45:03;;;;;;;3.00;2.80;;;;;;;26.89;55.70;99231.41;108301;1303;22285;-58
2023/07/17 08:47:29;;;;;;;2.70;2.50;;;;;;;26.98;55.58;99230.13;108169;1304;22212;-47
2023/07/17 08:49:56;;;;;;;5.00;3.10;;;;;;;27.10;55.26;99229.13;108074;1303;22606;-48
2023/07/17 08:52:22;;;;;;;3.40;2.80;;;;;;;27.17;54.64;99224.99;107604;1301;22343;-51
2023/07/17 08:54:47;;;;;;;6.60;2.60;;;;;;;27.35;55.20;99222.98;108287;1303;22574;-53
2023/07/17 08:57:13;;;;;;;2.90;2.50;;;;;;;27.58;54.45;99223.20;107359;1304;23181;-47
2023/07/17 08:59:39;;;;;;;3.50;2.70;;;;;;;27.77;52.38;99217.54;107355;1299;22556;-42
2023/07/17 09:02:04;;;;;;;6.30;2.30;;;;;;;27.87;52.37;99216.99;108243;1303;22259;-42
2023/07/17 09:04:34;;;;;;;5.90;2.40;;;;;;;28.00;51.75;99215.51;107851;1303;22509;-45
2023/07/17 09:06:59;;;;;;;2.60;2.40;;;;;;;28.13;50.80;99208.95;107966;1304;22559;-46
2023/07/17 09:09:24;;;;;;;2.70;2.30;;;;;;;28.31;50.57;99205.63;107602;1304;22658;-47
2023/07/17 09:12:07;;;;;;;6.40;3.00;;;;;;;28.45;50.07;99197.56;108231;1303;22493;-51
2023/07/17 09:14:33;;;;;;;3.60;2.40;;;;;;;28.58;49.38;99197.82;107890;1303;22537;-49
2023/07/17 09:17:07;;;;;;;2.50;2.20;;;;;;;28.83;48.42;99198.71;107826;1303;22610;-42
2023/07/17 09:19:34;;;;;;;2.30;2.10;;;;;;;28.98;47.25;99204.58;107461;1303;22556;-42
2023/07/17 09:22:02;;;;;;;4.80;2.70;;;;;;;29.20;46.81;99210.20;107670;1303;22231;-49
2023/07/17 09:24:28;;;;;;;2.20;2.00;;;;;;;29.46;46.62;99214.82;107287;1304;23365;-49
2023/07/17 09:26:57;;;;;;;3.10;2.20;;;;;;;29.70;45.52;99218.44;107677;1304;22313;-48
2023/07/17 09:29:24;;;;;;;3.30;2.50;;;;;;;29.86;45.23;99220.75;107685;1303;22566;-43
2023/07/17 09:31:50;;;;;;;3.20;2.80;;;;;;;29.99;44.80;99215.77;107757;1303;22621;-47
2023/07/17 09:34:16;;;;;;;2.70;2.30;;;;;;;30.12;44.90;99219.35;107546;1298;22563;-39
2023/07/17 09:36:42;;;;;;;3.00;2.10;;;;;;;30.43;43.79;99220.32;108229;1304;22346;-48
2023/07/17 09:39:09;;;;;;;4.10;2.50;;;;;;;30.91;42.62;99217.16;107631;1304;22466;-46
2023/07/17 09:41:35;;;;;;;6.90;2.40;;;;;;;31.33;40.62;99213.34;108261;1288;22208;-44
2023/07/17 09:44:02;;;;;;;2.40;2.20;;;;;;;31.81;41.67;99209.58;108239;1303;22460;-49
2023/07/17 09:46:29;;;;;;;3.30;2.50;;;;;;;32.30;40.92;99210.41;108244;1304;22237;-53
2023/07/17 09:48:56;;;;;;;3.20;1.90;;;;;;;32.82;39.36;99209.58;108277;1296;23217;-52
2023/07/17 09:51:22;;;;;;;3.90;2.10;;;;;;;33.17;37.18;99208.31;108245;1302;22267;-43
2023/07/17 09:53:47;;;;;;;5.30;2.20;;;;;;;33.12;36.62;99203.34;108250;1304;22253;-43
2023/07/17 09:56:15;;;;;;;2.10;1.90;;;;;;;32.92;36.64;99198.23;108247;1304;22448;-48
2023/07/17 09:58:48;;;;;;;2.80;2.50;;;;;;;32.91;37.12;99191.84;108247;1303;22919;-44
2023/07/17 10:01:19;;;;;;;10.60;4.50;;;;;;;33.05;36.94;99187.52;108236;1296;22235;-51
2023/07/17 10:03:46;;;;;;;3.50;2.30;;;;;;;33.03;36.56;99182.02;108234;1295;22386;-49
2023/07/17 10:06:14;;;;;;;6.00;2.30;;;;;;;32.93;36.82;99171.41;108243;1304;22459;-44
2023/07/17 10:08:42;;;;;;;3.90;2.20;;;;;;;32.81;37.15;99168.11;108258;1288;22451;-44
2023/07/17 10:11:07;;;;;;;3.00;2.00;;;;;;;32.94;36.94;99171.58;108302;1304;22430;-47
2023/07/17 10:13:33;;;;;;;3.50;1.70;;;;;;;32.77;36.93;99173.08;108245;1296;22446;-45
2023/07/17 10:15:59;;;;;;;2.20;2.00;;;;;;;32.69;36.55;99167.04;108245;1296;22439;-42
2023/07/17 10:18:24;;;;;;;2.70;1.90;;;;;;;32.57;36.42;99157.79;108254;1299;22380;-48
2023/07/17 10:20:53;;;;;;;2.30;1.90;;;;;;;32.89;36.90;99156.77;108217;1298;22220;-44
2023/07/17 10:23:25;;;;;;;2.20;1.80;;;;;;;33.11;35.97;99156.93;108253;1304;22423;-48
2023/07/17 10:25:52;;;;;;;3.80;1.80;;;;;;;33.58;34.95;99160.89;108363;1282;23056;-42
2023/07/17 10:28:31;;;;;;;3.30;1.70;;;;;;;34.06;33.96;99162.96;108330;1290;22611;-51
2023/07/17 10:31:11;;;;;;;11.20;2.40;;;;;;;34.54;32.88;99164.17;108351;1301;22413;-49
2023/07/17 10:33:38;;;;;;;2.00;1.80;;;;;;;35.26;32.58;99167.40;108347;1303;22243;-46
2023/07/17 10:36:04;;;;;;;2.50;1.80;;;;;;;35.52;32.10;99172.71;108339;1298;22327;-52
2023/07/17 10:38:31;;;;;;;5.50;1.80;;;;;;;35.41;30.94;99161.52;108299;1292;22277;-55
2023/07/17 10:41:10;;;;;;;3.00;1.90;;;;;;;35.62;31.41;99167.77;108263;1297;22228;-51
2023/07/17 10:43:35;;;;;;;2.10;1.90;;;;;;;36.04;30.70;99176.39;108327;1303;22389;-58
2023/07/17 10:46:08;;;;;;;3.70;2.00;;;;;;;36.18;29.32;99171.82;108243;1298;22344;-43
2023/07/17 10:48:34;;;;;;;7.60;2.00;;;;;;;36.18;29.76;99172.59;108244;1304;22459;-52
2023/07/17 10:50:59;;;;;;;;;;;;;;;35.90;29.37;99176.38;108314;1301;22629;-48
2023/07/17 10:53:24;;;;;;;1.90;1.80;;;;;;;35.89;29.28;99176.05;108286;1299;23197;-56
2023/07/17 10:55:50;;;;;;;6.60;2.10;;;;;;;35.49;29.98;99176.29;108231;1304;23033;-51
2023/07/17 10:58:20;;;;;;;4.30;2.20;;;;;;;35.05;30.77;99173.84;108218;1304;22256;-50
2023/07/17 11:00:46;;;;;;;7.40;2.20;;;;;;;34.63;31.29;99172.54;108310;1298;22302;-49
2023/07/17 11:03:16;;;;;;;3.30;2.40;;;;;;;34.18;32.10;99169.48;108242;1304;22252;-43
2023/07/17 11:05:43;;;;;;;4.80;2.00;;;;;;;33.83;32.98;99166.77;108281;1302;22407;-50
2023/07/17 11:08:12;;;;;;;3.40;2.00;;;;;;;33.38;33.70;99159.59;108279;1301;22223;-51
2023/07/17 11:10:40;;;;;;;5.20;1.90;;;;;;;32.96;34.35;99149.73;108325;1304;22373;-61
2023/07/17 11:13:06;;;;;;;5.90;2.10;;;;;;;32.75;34.82;99145.89;108322;1303;22267;-52
2023/07/17 11:15:33;;;;;;;2.50;2.00;;;;;;;32.34;35.37;99150.08;108339;1303;23062;-54
2023/07/17 11:18:00;;;;;;;4.40;2.10;;;;;;;32.22;35.94;99142.77;108332;1303;23051;-60
2023/07/17 11:20:25;;;;;;;3.90;2.00;;;;;;;32.16;36.29;99137.33;108346;1303;22211;-48
2023/07/17 11:22:51;;;;;;;1.90;1.70;;;;;;;32.27;36.26;99138.02;108369;1303;22407;-51
2023/07/17 11:25:16;;;;;;;2.80;2.10;;;;;;;32.25;36.17;99131.60;108340;1303;23333;-48